Time;durP1;ratioP1;P1;durP2;ratioP2;P2;SDS_P1;SDS_P2;PMS_P1;PMS_P2;Temp;Humidity;BMP_temperature;BMP_pressure;BME280_temperature;BME280_humidity;BME280_pressure;Samples;Min_cycle;Max_cycle;Signal;HPM_P1;HPM_P2
2021/11/27 00:00:48;;;;;;;18.13;11.55;;;2.10;99.90;;;;;;4948365;28;20059;-72
2021/11/27 00:03:16;;;;;;;22.02;13.02;;;2.10;99.90;;;;;;4963379;28;20074;-72
2021/11/27 00:05:44;;;;;;;16.90;10.68;;;2.10;99.90;;;;;;4927124;28;20398;-71
2021/11/27 00:08:13;;;;;;;16.55;11.07;;;2.10;99.90;;;;;;4957142;28;20527;-72
2021/11/27 00:10:42;;;;;;;16.55;10.32;;;2.10;99.90;;;;;;4982569;28;20050;-72
2021/11/27 00:13:09;;;;;;;14.23;9.65;;;2.10;99.90;;;;;;4950468;28;20514;-71
2021/11/27 00:15:37;;;;;;;15.18;10.15;;;2.10;99.90;;;;;;4932950;28;20499;-72
2021/11/27 00:18:06;;;;;;;12.95;8.27;;;2.10;99.90;;;;;;4941984;28;20418;-71
2021/11/27 00:20:59;;;;;;;14.00;9.65;;;2.10;99.90;;;;;;4961354;28;20042;-71
2021/11/27 00:23:28;;;;;;;15.07;9.68;;;2.10;99.90;;;;;;4951516;28;20050;-71
2021/11/27 00:25:56;;;;;;;16.25;11.32;;;2.10;99.90;;;;;;4949685;28;20074;-70
2021/11/27 00:28:24;;;;;;;13.60;8.88;;;2.10;99.90;;;;;;4964471;28;20587;-69
2021/11/27 00:30:56;;;;;;;13.40;9.65;;;2.10;99.90;;;;;;4950601;28;20051;-74
2021/11/27 00:33:23;;;;;;;12.68;9.43;;;2.10;99.90;;;;;;4947537;28;20061;-71
2021/11/27 00:35:50;;;;;;;12.23;8.93;;;2.10;99.90;;;;;;4964422;28;20097;-70
2021/11/27 00:38:17;;;;;;;12.93;9.10;;;2.10;99.90;;;;;;4977837;28;20237;-70
2021/11/27 00:40:45;;;;;;;12.93;8.07;;;2.10;99.90;;;;;;4961600;28;20349;-70
2021/11/27 00:43:13;;;;;;;11.85;7.97;;;2.20;99.90;;;;;;4965294;28;20058;-70
2021/11/27 00:45:42;;;;;;;12.48;7.97;;;2.20;99.90;;;;;;4963909;28;20051;-70
2021/11/27 00:48:11;;;;;;;12.98;9.23;;;2.20;99.90;;;;;;4965598;28;20112;-70
2021/11/27 00:50:43;;;;;;;11.50;8.25;;;2.10;99.90;;;;;;4949538;28;20074;-71
2021/11/27 00:53:10;;;;;;;12.70;8.20;;;2.10;99.90;;;;;;4966287;28;20150;-71
2021/11/27 00:55:38;;;;;;;11.77;8.60;;;2.10;99.90;;;;;;4947319;28;20094;-71
2021/11/27 00:58:05;;;;;;;13.10;8.77;;;2.10;99.90;;;;;;4962151;28;20050;-70
2021/11/27 01:00:37;;;;;;;12.35;9.18;;;2.10;99.90;;;;;;4964232;28;20587;-72
2021/11/27 01:03:09;;;;;;;12.88;8.85;;;2.10;99.90;;;;;;4947421;28;20436;-72
2021/11/27 01:05:38;;;;;;;13.77;9.32;;;2.10;99.90;;;;;;4964546;28;20062;-71
2021/11/27 01:08:05;;;;;;;13.20;9.45;;;2.10;99.90;;;;;;4962983;28;20137;-71
2021/11/27 01:10:44;;;;;;;13.55;8.93;;;2.10;99.90;;;;;;4945889;28;21016;-71
2021/11/27 01:13:12;;;;;;;12.85;8.25;;;2.10;99.90;;;;;;4947768;28;20043;-69
2021/11/27 01:15:39;;;;;;;13.85;8.88;;;2.10;99.90;;;;;;4948862;28;20245;-71
2021/11/27 01:18:06;;;;;;;15.35;10.02;;;2.10;99.90;;;;;;4962150;28;20463;-71
2021/11/27 01:20:42;;;;;;;11.93;8.55;;;2.10;99.90;;;;;;4948864;28;20053;-72
2021/11/27 01:23:10;;;;;;;12.95;8.95;;;2.10;99.90;;;;;;4949494;28;20089;-71
2021/11/27 01:25:37;;;;;;;10.25;7.68;;;2.10;99.90;;;;;;4947157;28;20068;-70
2021/11/27 01:28:04;;;;;;;9.43;8.13;;;2.10;99.90;;;;;;4947444;28;20110;-70
2021/11/27 01:30:31;;;;;;;10.55;7.38;;;2.10;99.90;;;;;;4964401;28;20146;-71
2021/11/27 01:32:59;;;;;;;10.77;8.32;;;2.10;99.90;;;;;;4965245;28;20055;-71
2021/11/27 01:35:26;;;;;;;12.57;8.95;;;2.10;99.90;;;;;;4965027;28;20058;-71
2021/11/27 01:37:53;;;;;;;12.32;8.15;;;2.20;99.90;;;;;;4948331;28;20062;-70
2021/11/27 01:40:23;;;;;;;11.90;8.10;;;2.10;99.90;;;;;;4962202;28;20062;-70
2021/11/27 01:42:52;;;;;;;11.75;8.07;;;2.20;99.90;;;;;;4963189;28;20471;-70
2021/11/27 01:45:20;;;;;;;11.68;8.40;;;2.20;99.90;;;;;;4930380;28;20109;-71
2021/11/27 01:48:16;;;;;;;8.52;6.78;;;2.20;99.90;;;;;;4964110;28;20078;-72
2021/11/27 01:50:45;;;;;;;;;;;2.20;99.90;;;;;;4930386;28;20042;-70
2021/11/27 01:53:13;;;;;;;10.75;8.25;;;2.20;99.90;;;;;;4948719;28;20394;-71
2021/11/27 01:55:41;;;;;;;10.02;6.90;;;2.20;99.90;;;;;;4946713;28;20651;-73
2021/11/27 01:58:08;;;;;;;12.45;7.90;;;2.20;99.90;;;;;;4963028;28;20090;-72
2021/11/27 02:00:40;;;;;;;10.15;8.02;;;2.20;99.90;;;;;;4946327;28;20117;-73
2021/11/27 02:03:08;;;;;;;10.70;7.90;;;2.20;99.90;;;;;;4964643;28;20388;-70
2021/11/27 02:05:52;;;;;;;11.88;8.10;;;2.20;99.90;;;;;;4958438;28;20500;-70
2021/11/27 02:08:19;;;;;;;12.77;8.30;;;2.20;99.90;;;;;;4960101;28;20459;-71
2021/11/27 02:10:46;;;;;;;11.88;8.55;;;2.20;99.90;;;;;;4963343;28;20126;-73
2021/11/27 02:13:15;;;;;;;11.65;8.32;;;2.20;99.90;;;;;;4963765;28;20047;-71
2021/11/27 02:15:44;;;;;;;13.15;8.32;;;2.20;99.90;;;;;;4946153;28;20062;-72
2021/11/27 02:18:11;;;;;;;12.52;8.40;;;2.20;99.90;;;;;;4946922;28;20090;-72
2021/11/27 02:20:40;;;;;;;11.13;8.68;;;2.20;99.90;;;;;;4965190;28;20145;-71
2021/11/27 02:23:07;;;;;;;12.73;9.00;;;2.20;99.90;;;;;;4947446;28;20052;-73
2021/11/27 02:25:35;;;;;;;10.50;8.20;;;2.30;99.90;;;;;;4961805;28;20046;-72
2021/11/27 02:28:04;;;;;;;13.02;8.75;;;2.20;99.90;;;;;;4963394;28;20221;-71
2021/11/27 02:30:31;;;;;;;11.15;7.30;;;2.20;99.90;;;;;;4945394;28;20073;-72
2021/11/27 02:32:59;;;;;;;12.00;8.52;;;2.20;99.90;;;;;;4963572;28;20106;-71
2021/11/27 02:35:26;;;;;;;13.60;9.30;;;2.20;99.90;;;;;;4963626;28;20439;-72
2021/11/27 02:37:53;;;;;;;16.30;9.23;;;2.30;99.90;;;;;;4962595;28;20051;-71
2021/11/27 02:40:20;;;;;;;11.52;8.82;;;2.20;99.90;;;;;;4963750;28;20503;-71
2021/11/27 02:42:47;;;;;;;12.40;8.63;;;2.30;99.90;;;;;;4960621;28;20122;-70
2021/11/27 02:45:14;;;;;;;16.38;8.93;;;2.30;99.90;;;;;;4962412;28;20217;-74
2021/11/27 02:47:42;;;;;;;14.18;8.93;;;2.30;99.90;;;;;;4998002;28;20407;-71
2021/11/27 02:50:13;;;;;;;11.75;8.23;;;2.30;99.90;;;;;;4997528;28;20145;-69
2021/11/27 02:52:43;;;;;;;11.40;7.60;;;2.30;99.90;;;;;;4964535;28;20106;-72
2021/11/27 02:55:10;;;;;;;10.90;7.95;;;2.30;99.90;;;;;;4962706;28;20535;-73
2021/11/27 02:57:37;;;;;;;9.80;7.75;;;2.30;99.90;;;;;;4945733;28;20500;-71
2021/11/27 03:00:09;;;;;;;11.00;7.28;;;2.20;99.90;;;;;;4946655;28;20522;-70
2021/11/27 03:02:36;;;;;;;12.05;8.10;;;2.30;99.90;;;;;;4949369;28;20117;-70
2021/11/27 03:05:04;;;;;;;11.05;7.88;;;2.30;99.90;;;;;;4951778;28;20401;-71
2021/11/27 03:07:31;;;;;;;11.38;7.88;;;2.30;99.90;;;;;;4961874;28;20042;-70
2021/11/27 03:09:58;;;;;;;11.10;8.13;;;2.20;99.90;;;;;;4932825;28;20516;-69
2021/11/27 03:12:26;;;;;;;11.10;7.80;;;2.20;99.90;;;;;;4965208;28;20057;-67
2021/11/27 03:14:53;;;;;;;10.30;8.10;;;2.20;99.90;;;;;;4964814;28;20054;-69
2021/11/27 03:17:19;;;;;;;11.98;8.32;;;2.10;99.90;;;;;;4948417;28;20050;-68
2021/11/27 03:19:46;;;;;;;11.90;8.15;;;2.10;99.90;;;;;;4950102;28;20672;-72
2021/11/27 03:22:15;;;;;;;14.00;8.45;;;2.00;99.90;;;;;;4940640;28;20043;-71
2021/11/27 03:24:42;;;;;;;11.18;8.07;;;1.90;99.90;;;;;;4945564;28;20149;-69
2021/11/27 03:27:11;;;;;;;11.57;7.75;;;1.80;99.90;;;;;;4959631;28;20047;-70
2021/11/27 03:29:38;;;;;;;13.82;9.82;;;1.70;99.90;;;;;;4943645;28;20054;-71
2021/11/27 03:32:13;;;;;;;15.85;9.50;;;1.70;99.90;;;;;;4960593;28;20046;-70
2021/11/27 03:35:00;;;;;;;16.10;9.55;;;1.60;99.90;;;;;;4970018;28;20050;-71
2021/11/27 03:37:38;;;;;;;13.20;8.35;;;1.70;99.90;;;;;;4957571;28;20050;-72
2021/11/27 03:40:09;;;;;;;16.55;9.60;;;1.70;99.90;;;;;;4960361;28;20066;-71
2021/11/27 03:42:36;;;;;;;15.38;10.23;;;1.60;99.90;;;;;;4936834;29;20146;-70
2021/11/27 03:45:05;;;;;;;14.45;10.27;;;1.60;99.90;;;;;;4940291;29;20599;-69
2021/11/27 03:47:32;;;;;;;15.75;9.57;;;1.60;99.90;;;;;;4959302;28;20055;-70
2021/11/27 03:49:59;;;;;;;16.17;11.25;;;1.60;99.90;;;;;;4956132;28;20047;-71
2021/11/27 03:52:26;;;;;;;18.20;10.43;;;1.60;99.90;;;;;;4958951;28;20051;-70
2021/11/27 03:54:53;;;;;;;17.52;11.55;;;1.60;99.90;;;;;;4957556;28;20079;-71
2021/11/27 03:57:20;;;;;;;12.98;9.25;;;1.60;99.90;;;;;;4940481;28;20055;-71
2021/11/27 03:59:47;;;;;;;16.55;10.05;;;1.60;99.90;;;;;;4975910;28;20070;-69
2021/11/27 04:02:15;;;;;;;17.52;10.55;;;1.60;99.90;;;;;;4960839;28;20137;-70
2021/11/27 04:04:43;;;;;;;14.32;10.13;;;1.50;99.90;;;;;;4944475;28;20351;-69
2021/11/27 04:07:10;;;;;;;13.50;9.13;;;1.60;99.90;;;;;;4957719;28;20047;-71
2021/11/27 04:09:37;;;;;;;18.77;11.57;;;1.60;99.90;;;;;;4921890;29;20043;-71
2021/11/27 04:12:05;;;;;;;17.17;11.57;;;1.60;99.90;;;;;;4942426;28;20396;-71
2021/11/27 04:14:42;;;;;;;16.08;10.45;;;1.70;99.90;;;;;;4949004;28;20055;-71
2021/11/27 04:17:09;;;;;;;18.13;10.90;;;1.70;99.90;;;;;;4958490;28;20423;-71
2021/11/27 04:19:36;;;;;;;16.35;10.65;;;1.80;99.90;;;;;;4942849;28;20043;-72
2021/11/27 04:22:08;;;;;;;16.58;9.43;;;1.80;99.90;;;;;;4927298;28;20296;-70
2021/11/27 04:24:39;;;;;;;16.85;9.52;;;1.80;99.90;;;;;;4964352;28;20043;-75
2021/11/27 04:27:06;;;;;;;13.75;9.25;;;1.80;99.90;;;;;;4961986;28;20061;-73
2021/11/27 04:29:34;;;;;;;15.50;9.07;;;1.80;99.90;;;;;;4960413;28;20039;-73
2021/11/27 04:32:01;;;;;;;12.15;9.05;;;1.80;99.90;;;;;;4962100;28;20133;-72
2021/11/27 04:34:32;;;;;;;13.52;8.65;;;1.80;99.90;;;;;;4945702;28;20170;-71
2021/11/27 04:37:10;;;;;;;13.13;8.82;;;1.80;99.90;;;;;;4926198;28;20062;-71
2021/11/27 04:39:42;;;;;;;14.40;9.75;;;1.80;99.90;;;;;;4963093;28;20066;-71
2021/11/27 04:42:20;;;;;;;13.88;9.00;;;1.80;99.90;;;;;;4922137;28;20078;-72
2021/11/27 04:44:47;;;;;;;14.60;10.23;;;1.90;99.90;;;;;;4958050;28;20055;-72
2021/11/27 04:47:16;;;;;;;11.05;7.82;;;1.90;99.90;;;;;;4925143;28;20050;-74
2021/11/27 04:49:44;;;;;;;14.98;10.25;;;1.90;99.90;;;;;;4943578;28;20133;-70
2021/11/27 04:52:12;;;;;;;11.88;8.27;;;1.90;99.90;;;;;;4958470;28;20057;-72
2021/11/27 04:54:39;;;;;;;10.35;7.88;;;1.90;99.90;;;;;;4944448;28;20049;-72
2021/11/27 04:57:06;;;;;;;13.68;9.57;;;1.90;99.90;;;;;;4958646;28;20057;-71
2021/11/27 04:59:34;;;;;;;14.02;8.90;;;1.90;99.90;;;;;;4957161;28;20113;-71
2021/11/27 05:02:01;;;;;;;15.10;10.23;;;1.90;99.90;;;;;;4959320;28;20062;-73
2021/11/27 05:04:29;;;;;;;16.08;10.85;;;1.90;99.90;;;;;;4928080;28;20058;-73
2021/11/27 05:06:56;;;;;;;13.35;9.68;;;1.90;99.90;;;;;;4956635;28;20090;-74
2021/11/27 05:09:23;;;;;;;14.93;10.77;;;2.00;99.90;;;;;;4956393;28;20061;-73
2021/11/27 05:11:50;;;;;;;15.25;10.98;;;2.00;99.90;;;;;;4957098;28;20075;-73
2021/11/27 05:14:17;;;;;;;15.68;10.63;;;2.00;99.90;;;;;;4938703;29;20106;-72
2021/11/27 05:16:44;;;;;;;16.70;11.10;;;2.00;99.90;;;;;;4939180;28;20051;-72
2021/11/27 05:19:11;;;;;;;17.58;11.23;;;2.10;99.90;;;;;;4956867;28;20504;-72
2021/11/27 05:22:07;;;;;;;15.98;10.82;;;2.10;99.90;;;;;;4933540;28;20379;-71
2021/11/27 05:24:35;;;;;;;17.42;10.35;;;2.00;99.90;;;;;;4958966;28;20124;-75
2021/11/27 05:27:19;;;;;;;16.48;11.25;;;2.10;99.90;;;;;;4941584;28;20047;-72
2021/11/27 05:30:10;;;;;;;15.85;10.07;;;2.00;99.90;;;;;;4938620;28;20074;-73
2021/11/27 05:33:07;;;;;;;19.38;12.32;;;2.00;99.90;;;;;;4959031;28;20141;-73
2021/11/27 05:35:42;;;;;;;19.35;11.85;;;2.10;99.90;;;;;;4941522;28;20043;-73
2021/11/27 05:38:09;;;;;;;17.23;11.48;;;2.20;99.90;;;;;;4970446;28;20131;-73
2021/11/27 05:40:37;;;;;;;20.25;12.75;;;2.20;99.90;;;;;;4951727;28;20050;-72
2021/11/27 05:43:04;;;;;;;18.80;12.02;;;2.20;99.90;;;;;;4957832;28;20046;-74
2021/11/27 05:45:31;;;;;;;17.27;11.82;;;2.10;99.90;;;;;;4941837;28;20115;-72
2021/11/27 05:48:03;;;;;;;17.55;11.57;;;2.10;99.90;;;;;;4959146;28;20047;-71
2021/11/27 05:50:49;;;;;;;17.10;11.43;;;2.10;99.90;;;;;;4958484;28;20125;-72
2021/11/27 05:53:18;;;;;;;17.63;11.68;;;2.10;99.90;;;;;;4960653;28;20590;-72
2021/11/27 05:55:47;;;;;;;18.27;11.73;;;2.10;99.90;;;;;;4941338;28;20542;-72
2021/11/27 05:58:18;;;;;;;20.92;12.43;;;2.10;99.90;;;;;;4957282;28;20054;-72
2021/11/27 06:00:46;;;;;;;18.73;11.23;;;2.10;99.90;;;;;;4941966;28;20039;-71
2021/11/27 06:03:14;;;;;;;18.38;11.77;;;2.10;99.90;;;;;;4960157;28;20463;-70
2021/11/27 06:05:41;;;;;;;17.63;12.55;;;2.10;99.90;;;;;;4958504;28;20061;-71
2021/11/27 06:08:08;;;;;;;19.42;11.77;;;2.20;99.90;;;;;;4969220;28;20062;-72
2021/11/27 06:10:35;;;;;;;18.42;11.93;;;2.20;99.90;;;;;;4941471;28;20066;-70
2021/11/27 06:13:03;;;;;;;19.33;12.23;;;2.20;99.90;;;;;;4975185;28;20053;-71
2021/11/27 06:15:31;;;;;;;19.65;13.25;;;2.10;99.90;;;;;;4940821;28;20046;-70
2021/11/27 06:17:59;;;;;;;18.73;12.15;;;2.20;99.90;;;;;;4924632;28;20497;-71
2021/11/27 06:20:27;;;;;;;21.00;11.93;;;2.20;99.90;;;;;;4974037;28;20073;-71
2021/11/27 06:22:54;;;;;;;22.33;13.57;;;2.20;99.90;;;;;;4942610;28;20229;-72
2021/11/27 06:25:25;;;;;;;20.38;12.57;;;2.20;99.90;;;;;;4942087;28;20211;-72
2021/11/27 06:27:54;;;;;;;19.92;11.82;;;2.20;99.90;;;;;;4956907;28;20134;-71
2021/11/27 06:30:21;;;;;;;19.20;12.07;;;2.20;99.90;;;;;;4971807;28;20058;-72
2021/11/27 06:32:48;;;;;;;18.38;11.85;;;2.30;99.90;;;;;;4958504;28;20369;-71
2021/11/27 06:35:15;;;;;;;18.20;11.38;;;2.20;99.90;;;;;;4959771;28;20043;-72
2021/11/27 06:37:42;;;;;;;16.35;11.15;;;2.20;99.90;;;;;;4955589;28;20051;-73
2021/11/27 06:40:11;;;;;;;19.80;12.55;;;2.30;99.90;;;;;;4961356;28;20050;-73
2021/11/27 06:43:02;;;;;;;16.88;10.32;;;2.30;99.90;;;;;;4954834;28;20271;-73
2021/11/27 06:45:55;;;;;;;18.40;11.93;;;2.30;99.90;;;;;;4961327;28;20550;-72
2021/11/27 06:48:22;;;;;;;16.58;11.20;;;2.30;99.90;;;;;;4960221;28;20427;-72
2021/11/27 06:50:49;;;;;;;17.13;10.55;;;2.20;99.90;;;;;;4956678;28;20051;-75
2021/11/27 06:53:16;;;;;;;15.98;10.48;;;2.20;99.90;;;;;;4961537;28;20158;-72
2021/11/27 06:55:43;;;;;;;16.30;10.15;;;2.20;99.90;;;;;;4961395;28;20444;-73
2021/11/27 06:58:10;;;;;;;16.40;10.43;;;2.20;99.90;;;;;;4960753;28;20062;-73
2021/11/27 07:00:44;;;;;;;17.02;10.50;;;2.20;99.90;;;;;;4945219;28;20085;-73
2021/11/27 07:03:34;;;;;;;18.15;11.75;;;2.20;99.90;;;;;;4963279;28;20102;-73
2021/11/27 07:06:27;;;;;;;18.63;10.98;;;2.30;99.90;;;;;;4925046;28;20051;-72
2021/11/27 07:08:53;;;;;;;14.15;10.10;;;2.30;99.90;;;;;;4959365;28;20594;-72
2021/11/27 07:11:40;;;;;;;16.92;11.13;;;2.30;99.90;;;;;;4962278;28;20522;-72
2021/11/27 07:14:07;;;;;;;16.13;11.18;;;2.30;99.90;;;;;;4962333;28;20072;-71
2021/11/27 07:16:34;;;;;;;17.45;11.27;;;2.30;99.90;;;;;;4960670;28;20057;-72
2021/11/27 07:19:05;;;;;;;16.88;11.32;;;2.30;99.90;;;;;;4976636;28;20054;-73
2021/11/27 07:21:32;;;;;;;18.27;11.27;;;2.40;99.90;;;;;;4961228;28;20051;-72
2021/11/27 07:23:58;;;;;;;13.98;10.35;;;2.30;99.90;;;;;;4963900;28;20063;-72
2021/11/27 07:26:25;;;;;;;16.20;10.57;;;2.40;99.90;;;;;;4959498;28;20050;-71
2021/11/27 07:29:01;;;;;;;16.67;11.23;;;2.40;99.90;;;;;;4958826;28;20121;-72
2021/11/27 07:31:28;;;;;;;20.45;13.13;;;2.40;99.90;;;;;;4960655;28;20333;-71
2021/11/27 07:33:55;;;;;;;17.90;10.65;;;2.40;99.90;;;;;;4962826;28;20586;-72
2021/11/27 07:36:22;;;;;;;17.65;11.23;;;2.40;99.90;;;;;;4943371;28;20058;-71
2021/11/27 07:38:49;;;;;;;18.92;11.75;;;2.30;99.90;;;;;;4942169;28;20074;-71
2021/11/27 07:41:16;;;;;;;19.98;12.40;;;2.30;99.90;;;;;;4960403;28;20141;-71
2021/11/27 07:43:43;;;;;;;23.92;13.48;;;2.30;99.90;;;;;;4961079;28;20050;-71
2021/11/27 07:46:20;;;;;;;22.38;13.05;;;2.30;99.90;;;;;;4944906;28;20054;-72
2021/11/27 07:49:06;;;;;;;21.92;12.40;;;2.20;99.90;;;;;;4959852;28;20118;-72
2021/11/27 07:51:52;;;;;;;19.88;11.65;;;2.20;99.90;;;;;;4948288;28;20042;-72
2021/11/27 07:54:19;;;;;;;23.02;13.00;;;2.10;99.90;;;;;;4961899;28;20085;-72
2021/11/27 07:56:47;;;;;;;25.20;14.55;;;2.10;99.90;;;;;;4975714;28;20239;-72
2021/11/27 07:59:14;;;;;;;20.52;12.57;;;2.00;99.90;;;;;;4943040;28;20047;-72
2021/11/27 08:01:41;;;;;;;23.95;14.07;;;2.00;99.90;;;;;;4962265;28;20156;-73
2021/11/27 08:04:08;;;;;;;24.48;14.50;;;2.00;99.90;;;;;;4946332;28;20054;-72
2021/11/27 08:06:35;;;;;;;23.98;14.35;;;2.00;99.90;;;;;;4956035;28;20495;-71
2021/11/27 08:09:03;;;;;;;28.77;17.77;;;2.00;99.90;;;;;;4944095;28;20533;-72
2021/11/27 08:11:30;;;;;;;32.80;17.70;;;2.00;99.90;;;;;;4958720;28;20055;-73
2021/11/27 08:13:59;;;;;;;31.80;16.40;;;1.90;99.90;;;;;;4962078;28;20312;-72
2021/11/27 08:16:26;;;;;;;27.90;15.70;;;2.00;99.90;;;;;;4959125;28;20133;-73
2021/11/27 08:18:53;;;;;;;34.15;19.52;;;2.00;99.90;;;;;;4960396;28;20055;-72
2021/11/27 08:21:20;;;;;;;25.98;14.27;;;2.00;99.90;;;;;;4961555;28;20061;-72
2021/11/27 08:23:49;;;;;;;28.35;15.73;;;2.00;99.90;;;;;;4962089;28;20116;-72
2021/11/27 08:26:16;;;;;;;30.20;18.30;;;2.10;99.90;;;;;;4962496;28;20137;-72
2021/11/27 08:28:43;;;;;;;28.52;15.27;;;2.10;99.90;;;;;;4943059;28;20428;-72
2021/11/27 08:31:10;;;;;;;29.23;14.73;;;2.10;99.90;;;;;;4962158;28;20046;-71
2021/11/27 08:33:37;;;;;;;26.25;13.93;;;2.10;99.90;;;;;;4977511;28;20698;-73
2021/11/27 08:36:04;;;;;;;30.45;15.55;;;2.20;99.90;;;;;;4957404;28;20051;-72
2021/11/27 08:38:31;;;;;;;28.20;15.32;;;2.20;99.90;;;;;;4959217;28;20054;-72
2021/11/27 08:40:59;;;;;;;27.95;15.13;;;2.20;99.90;;;;;;4957250;28;20134;-72
2021/11/27 08:43:27;;;;;;;29.90;16.33;;;2.10;99.90;;;;;;4959891;28;20054;-71
2021/11/27 08:45:54;;;;;;;27.10;15.15;;;2.30;99.90;;;;;;4944322;28;20138;-73
2021/11/27 08:48:21;;;;;;;27.50;14.93;;;2.40;99.90;;;;;;4959219;28;20055;-71
2021/11/27 08:50:48;;;;;;;26.55;14.27;;;2.40;99.90;;;;;;4959356;28;20097;-69
2021/11/27 08:53:14;;;;;;;29.65;16.95;;;2.40;99.90;;;;;;4959354;28;20082;-70
2021/11/27 08:55:41;;;;;;;29.48;15.45;;;2.40;99.90;;;;;;4958396;28;20129;-72
2021/11/27 08:58:08;;;;;;;32.60;18.33;;;2.50;99.90;;;;;;4958365;28;20113;-71
2021/11/27 09:00:35;;;;;;;36.92;21.13;;;2.60;99.90;;;;;;4958561;28;20066;-72
2021/11/27 09:03:05;;;;;;;34.80;20.38;;;2.70;99.90;;;;;;4961501;28;20141;-71
2021/11/27 09:05:32;;;;;;;33.95;18.85;;;2.80;99.90;;;;;;4959304;28;20054;-69
2021/11/27 09:07:58;;;;;;;29.20;16.88;;;2.80;99.90;;;;;;4969320;28;20051;-70
2021/11/27 09:10:25;;;;;;;25.77;16.45;;;2.80;99.90;;;;;;4943267;28;20904;-70
2021/11/27 09:12:52;;;;;;;26.40;15.60;;;2.70;99.90;;;;;;4962194;28;20093;-70
2021/11/27 09:15:19;;;;;;;26.65;16.05;;;2.70;99.90;;;;;;4959899;28;20070;-70
2021/11/27 09:17:46;;;;;;;33.08;18.20;;;2.70;99.90;;;;;;4957680;28;20086;-70
2021/11/27 09:20:13;;;;;;;32.45;19.40;;;2.80;99.90;;;;;;4941404;28;20513;-71
2021/11/27 09:22:40;;;;;;;39.65;18.77;;;2.80;99.90;;;;;;4942859;28;20042;-70
2021/11/27 09:25:08;;;;;;;43.30;20.63;;;2.80;99.90;;;;;;4960268;28;20062;-69
2021/11/27 09:27:35;;;;;;;29.35;17.58;;;2.80;99.90;;;;;;4954994;28;20067;-70
2021/11/27 09:30:05;;;;;;;27.17;16.42;;;2.90;99.90;;;;;;4955572;28;20053;-70
2021/11/27 09:32:32;;;;;;;22.92;14.70;;;2.90;99.90;;;;;;4957635;28;20050;-71
2021/11/27 09:34:59;;;;;;;23.58;14.05;;;2.90;99.90;;;;;;4938664;28;20059;-70
2021/11/27 09:37:26;;;;;;;23.75;15.98;;;3.00;99.90;;;;;;4950584;28;20070;-70
2021/11/27 09:39:53;;;;;;;18.08;11.52;;;3.00;99.90;;;;;;4959028;28;20505;-69
2021/11/27 09:42:20;;;;;;;19.52;12.02;;;3.00;99.90;;;;;;4956532;28;20055;-72
2021/11/27 09:44:50;;;;;;;14.60;9.38;;;3.00;99.90;;;;;;4960057;28;20055;-70
2021/11/27 09:47:18;;;;;;;16.08;11.15;;;3.00;99.90;;;;;;4960873;28;20067;-71
2021/11/27 09:49:46;;;;;;;12.80;8.95;;;3.10;99.90;;;;;;4961278;28;20062;-71
2021/11/27 09:52:13;;;;;;;10.48;7.25;;;3.10;99.90;;;;;;4960582;28;20047;-71
2021/11/27 09:54:41;;;;;;;14.55;9.63;;;3.00;99.90;;;;;;4959489;28;20055;-70
2021/11/27 09:57:11;;;;;;;14.93;9.75;;;3.00;99.90;;;;;;4960641;28;20047;-71
2021/11/27 09:59:39;;;;;;;21.90;12.32;;;3.10;99.90;;;;;;4960461;28;20062;-70
2021/11/27 10:02:10;;;;;;;17.92;11.00;;;3.10;99.90;;;;;;4959024;28;20080;-71
2021/11/27 10:04:41;;;;;;;14.38;9.98;;;3.20;99.90;;;;;;4959796;28;20038;-70
2021/11/27 10:07:13;;;;;;;13.07;9.18;;;3.20;99.90;;;;;;4959098;28;20491;-73
2021/11/27 10:09:42;;;;;;;12.82;8.80;;;3.30;99.90;;;;;;4959640;28;20070;-70
2021/11/27 10:12:10;;;;;;;16.48;12.50;;;3.30;99.90;;;;;;4962930;28;20495;-69
2021/11/27 10:14:39;;;;;;;20.52;14.98;;;3.20;99.90;;;;;;4963137;28;20097;-71
2021/11/27 10:17:18;;;;;;;23.35;15.18;;;3.30;99.90;;;;;;4944831;28;20201;-70
2021/11/27 10:19:58;;;;;;;18.58;13.13;;;3.40;99.90;;;;;;4933820;28;20136;-70
2021/11/27 10:22:39;;;;;;;16.00;11.32;;;3.40;99.90;;;;;;4972874;28;20055;-71
2021/11/27 10:25:25;;;;;;;14.23;10.43;;;3.40;99.90;;;;;;4946418;28;20046;-71
2021/11/27 10:28:18;;;;;;;20.92;12.93;;;3.50;99.90;;;;;;4957540;28;20058;-72
2021/11/27 10:30:50;;;;;;;28.67;17.02;;;3.60;99.90;;;;;;4961439;28;20034;-69
2021/11/27 10:33:18;;;;;;;17.10;11.18;;;3.70;99.90;;;;;;4962691;28;20242;-70
2021/11/27 10:36:01;;;;;;;17.30;11.00;;;3.60;99.90;;;;;;4944031;28;20047;-71
2021/11/27 10:38:34;;;;;;;18.35;11.02;;;3.50;99.90;;;;;;4973419;28;20111;-71
2021/11/27 10:41:01;;;;;;;19.15;11.15;;;3.40;99.90;;;;;;4960137;28;20050;-70
2021/11/27 10:43:29;;;;;;;24.08;12.57;;;3.50;99.90;;;;;;4946026;28;20356;-70
2021/11/27 10:46:37;;;;;;;18.75;11.35;;;3.40;99.90;;;;;;4963135;28;20059;-70
2021/11/27 10:49:06;;;;;;;21.27;12.73;;;3.40;99.90;;;;;;4958988;28;20101;-71
2021/11/27 10:51:33;;;;;;;25.15;11.90;;;3.30;99.90;;;;;;4960979;28;20051;-70
2021/11/27 10:54:03;;;;;;;27.88;13.90;;;3.30;99.90;;;;;;4962694;28;20051;-70
2021/11/27 10:56:50;;;;;;;24.55;13.40;;;3.30;99.90;;;;;;4943500;28;20045;-70
2021/11/27 10:59:18;;;;;;;22.05;12.45;;;3.40;99.90;;;;;;4942403;28;20054;-70
2021/11/27 11:02:04;;;;;;;19.52;12.57;;;3.50;99.90;;;;;;4961579;28;20053;-70
2021/11/27 11:04:33;;;;;;;22.38;12.48;;;3.60;99.90;;;;;;4939277;29;20417;-70
2021/11/27 11:07:21;;;;;;;20.33;12.35;;;3.70;99.90;;;;;;4949187;28;20082;-71
2021/11/27 11:10:15;;;;;;;20.05;11.38;;;3.70;99.90;;;;;;4975191;28;20086;-70
2021/11/27 11:13:02;;;;;;;15.07;10.20;;;3.90;99.90;;;;;;4944345;28;20051;-71
2021/11/27 11:15:41;;;;;;;15.07;9.75;;;3.80;99.90;;;;;;4961940;28;20055;-70
2021/11/27 11:18:26;;;;;;;20.52;11.68;;;3.90;99.90;;;;;;4957388;28;20059;-69
2021/11/27 11:20:59;;;;;;;19.98;12.18;;;3.90;99.90;;;;;;4956564;28;20058;-71
2021/11/27 11:23:40;;;;;;;17.33;11.45;;;3.90;99.90;;;;;;4944848;28;20062;-70
2021/11/27 11:26:24;;;;;;;18.65;10.63;;;3.80;99.90;;;;;;4961035;28;20066;-70
2021/11/27 11:28:57;;;;;;;17.30;10.05;;;3.90;99.90;;;;;;4976981;28;20570;-71
2021/11/27 11:31:42;;;;;;;17.35;9.98;;;3.90;99.90;;;;;;4962224;28;20523;-72
2021/11/27 11:34:09;;;;;;;19.95;11.75;;;4.00;99.90;;;;;;4946188;28;20102;-72
2021/11/27 11:36:55;;;;;;;;;;;4.00;99.90;;;;;;4959798;28;20179;-71
2021/11/27 11:39:22;;;;;;;17.98;11.88;;;4.00;99.90;;;;;;4960589;28;19928;-71
2021/11/27 11:41:49;;;;;;;20.63;12.60;;;4.20;99.90;;;;;;4958806;28;20430;-70
2021/11/27 11:44:16;;;;;;;25.33;14.80;;;4.30;99.90;;;;;;4961366;28;20047;-72
2021/11/27 11:46:43;;;;;;;21.25;12.20;;;4.30;99.90;;;;;;4960504;28;20278;-70
2021/11/27 11:49:14;;;;;;;20.45;12.80;;;4.30;99.90;;;;;;4961224;28;20587;-71
2021/11/27 11:51:49;;;;;;;22.65;13.07;;;4.30;99.90;;;;;;4944096;28;20510;-70
2021/11/27 11:54:17;;;;;;;16.55;11.07;;;4.20;99.90;;;;;;4929240;28;20051;-71
2021/11/27 11:56:45;;;;;;;23.35;14.65;;;4.10;99.90;;;;;;4962302;28;20515;-72
2021/11/27 11:59:27;;;;;;;21.92;13.90;;;4.10;99.90;;;;;;4960796;28;20527;-71
2021/11/27 12:02:16;;;;;;;19.48;12.10;;;4.10;99.90;;;;;;4944161;28;20074;-71
2021/11/27 12:05:04;;;;;;;22.55;12.52;;;4.20;99.90;;;;;;4961695;28;20063;-71
2021/11/27 12:10:19;;;;;;;14.65;10.90;;;4.20;99.90;;;;;;4961931;28;20055;-71
2021/11/27 12:13:06;;;;;;;16.98;11.13;;;4.20;99.90;;;;;;4948204;28;20046;-72
2021/11/27 12:15:45;;;;;;;26.33;13.32;;;4.20;99.90;;;;;;4963604;28;20408;-71
2021/11/27 12:18:18;;;;;;;26.75;16.58;;;4.20;99.90;;;;;;4959279;28;20058;-71
2021/11/27 12:20:56;;;;;;;22.02;12.52;;;4.20;99.90;;;;;;4927907;28;20165;-72
2021/11/27 12:23:32;;;;;;;21.90;13.35;;;4.10;99.90;;;;;;4959556;28;20046;-71
2021/11/27 12:26:11;;;;;;;28.10;16.33;;;4.10;99.90;;;;;;4961143;28;20129;-72
2021/11/27 12:28:50;;;;;;;15.18;9.32;;;4.00;99.90;;;;;;4961305;28;20089;-72
2021/11/27 12:31:24;;;;;;;19.17;12.10;;;3.90;99.90;;;;;;4960182;28;20148;-72
2021/11/27 12:34:00;;;;;;;16.73;11.40;;;3.80;99.90;;;;;;4962268;28;20519;-71
2021/11/27 12:36:27;;;;;;;20.58;12.30;;;3.80;99.90;;;;;;4960886;28;20402;-69
2021/11/27 12:39:04;;;;;;;18.52;11.52;;;3.90;99.90;;;;;;4962352;28;20578;-69
2021/11/27 12:41:37;;;;;;;18.95;11.68;;;3.90;99.90;;;;;;4944857;28;20054;-71
2021/11/27 12:44:24;;;;;;;16.85;9.30;;;3.80;99.90;;;;;;4959875;28;20086;-69
2021/11/27 12:46:52;;;;;;;22.85;13.40;;;3.70;99.90;;;;;;4958709;28;20050;-68
2021/11/27 12:49:32;;;;;;;20.55;12.50;;;3.70;99.90;;;;;;4956827;28;20424;-69
2021/11/27 12:52:14;;;;;;;22.48;13.30;;;3.70;99.90;;;;;;4960877;28;20141;-69
2021/11/27 12:54:42;;;;;;;23.55;14.52;;;3.70;99.90;;;;;;4941166;28;20039;-71
2021/11/27 12:57:17;;;;;;;21.30;12.98;;;3.70;99.90;;;;;;4959034;28;20034;-71
2021/11/27 12:59:47;;;;;;;28.92;15.02;;;3.60;99.90;;;;;;4940816;28;20435;-71
2021/11/27 13:02:18;;;;;;;28.08;15.95;;;3.60;99.90;;;;;;4939993;28;20480;-70